Staraja Russa, Russia
Current Conditions -  °F | °C
As of 10:00 PM on Saturday 20 Dec 2014 (Local Time) from ULOO Reporting Station
Overcast Overcast  
Wind Chill: 28°   Ceiling: 2100
Heat Index: 36°   Visibility: 4mi
Dew Point: 34°   Wind: 11mph
Humidity: 93%   Direction: 220°SW
Pressure: 29.23"   Gusts: NA
Location:  57.99°N, 31.36°E
Report Text: ULOO 201900Z 22005MPS P6000 OVC021 02/01 Q0990 19290050 NOSIGRMK QFE738
Loading
Personal Weather Stations






























Interactive Weather Map New forecast layout! Learn more

10-Day Weather Forecast

Advertisements
Track Severe Weather on mobile